Time;durP1;ratioP1;P1;durP2;ratioP2;P2;SDS_P1;SDS_P2;PMS_P1;PMS_P2;Temp;Humidity;BMP_temperature;BMP_pressure;BME280_temperature;BME280_humidity;BME280_pressure;Samples;Min_cycle;Max_cycle;Signal;HPM_P1;HPM_P2
2022/07/06 00:01:27;;;;;;;8.10;6.53;;;;;;;;;;8333202;28;20401;-88
2022/07/06 00:05:31;;;;;;;8.55;6.03;;;;;;;;;;8329899;28;20104;-89
2022/07/06 00:09:33;;;;;;;8.27;6.35;;;;;;;;;;8332980;28;20069;-88
2022/07/06 00:13:36;;;;;;;10.40;6.30;;;;;;;;;;8332683;28;20045;-89
2022/07/06 00:17:39;;;;;;;9.98;6.53;;;;;;;;;;8329722;28;20120;-89
2022/07/06 00:21:43;;;;;;;8.65;7.07;;;;;;;;;;8328988;28;20103;-88
2022/07/06 00:25:46;;;;;;;9.50;7.65;;;;;;;;;;8329370;28;20041;-89
2022/07/06 00:29:48;;;;;;;10.75;6.90;;;;;;;;;;8332104;28;20049;-89
2022/07/06 00:33:51;;;;;;;9.32;6.80;;;;;;;;;;8330284;28;20043;-88
2022/07/06 00:37:55;;;;;;;10.30;7.45;;;;;;;;;;8331617;28;20086;-88
2022/07/06 00:41:58;;;;;;;11.07;8.40;;;;;;;;;;8332119;28;20045;-89
2022/07/06 00:46:01;;;;;;;8.27;7.15;;;;;;;;;;8330577;28;20045;-88
2022/07/06 00:50:18;;;;;;;9.55;7.70;;;;;;;;;;8330931;28;20092;-91
2022/07/06 00:54:22;;;;;;;8.60;7.25;;;;;;;;;;8331051;28;20044;-89
2022/07/06 00:58:25;;;;;;;10.85;7.18;;;;;;;;;;8330824;28;20144;-89
2022/07/06 01:02:31;;;;;;;8.68;7.20;;;;;;;;;;8331185;28;20095;-91
2022/07/06 01:06:34;;;;;;;11.20;8.68;;;;;;;;;;8328719;28;20495;-88
2022/07/06 01:10:38;;;;;;;10.23;7.68;;;;;;;;;;8330959;28;20045;-90
2022/07/06 01:14:46;;;;;;;10.05;8.30;;;;;;;;;;8330378;28;20042;-92
2022/07/06 01:18:49;;;;;;;10.20;8.30;;;;;;;;;;8330532;28;20072;-93
2022/07/06 01:22:55;;;;;;;8.52;7.40;;;;;;;;;;8330063;28;20068;-90
2022/07/06 01:26:58;;;;;;;9.75;7.22;;;;;;;;;;8331423;28;20056;-90
2022/07/06 01:31:01;;;;;;;8.90;7.15;;;;;;;;;;8329149;28;20052;-91
2022/07/06 01:35:08;;;;;;;10.40;7.47;;;;;;;;;;8330048;28;20041;-90
2022/07/06 01:39:12;;;;;;;9.27;6.88;;;;;;;;;;8330988;28;20046;-91
2022/07/06 01:43:15;;;;;;;9.63;7.68;;;;;;;;;;8330885;28;20120;-92
2022/07/06 01:47:17;;;;;;;9.23;7.97;;;;;;;;;;8330745;28;20049;-89
2022/07/06 01:51:21;;;;;;;11.02;7.20;;;;;;;;;;8330821;28;20048;-89
2022/07/06 01:55:25;;;;;;;9.43;7.38;;;;;;;;;;8330686;28;20048;-89
2022/07/06 01:59:27;;;;;;;8.50;7.15;;;;;;;;;;8330445;28;20049;-89
2022/07/06 02:03:30;;;;;;;7.47;6.68;;;;;;;;;;8329377;28;20045;-91
2022/07/06 02:07:32;;;;;;;10.70;6.75;;;;;;;;;;8330440;28;20124;-90
2022/07/06 02:11:36;;;;;;;9.35;7.30;;;;;;;;;;8330162;28;20056;-91
2022/07/06 02:15:39;;;;;;;8.52;6.65;;;;;;;;;;8330113;28;20045;-91
2022/07/06 02:19:41;;;;;;;8.43;6.05;;;;;;;;;;8330063;28;20076;-91
2022/07/06 02:23:44;;;;;;;7.28;6.43;;;;;;;;;;8329131;28;20042;-92
2022/07/06 02:27:48;;;;;;;7.45;6.10;;;;;;;;;;8330102;28;20387;-91
2022/07/06 02:31:51;;;;;;;8.25;6.55;;;;;;;;;;8329806;28;20058;-93
2022/07/06 02:35:53;;;;;;;9.05;6.60;;;;;;;;;;8329777;28;20041;-93
2022/07/06 02:39:56;;;;;;;8.77;7.10;;;;;;;;;;8330016;28;20060;-90
2022/07/06 02:44:00;;;;;;;6.95;6.03;;;;;;;;;;8329554;28;20091;-89
2022/07/06 02:48:03;;;;;;;8.05;6.20;;;;;;;;;;8325514;28;20045;-91
2022/07/06 02:52:06;;;;;;;8.30;6.65;;;;;;;;;;8329724;28;20128;-89
2022/07/06 02:56:08;;;;;;;10.70;6.93;;;;;;;;;;8329389;28;20046;-91
2022/07/06 03:00:13;;;;;;;11.35;7.25;;;;;;;;;;8329625;28;20049;-88
2022/07/06 03:04:16;;;;;;;9.88;7.30;;;;;;;;;;8329113;28;20084;-89
2022/07/06 03:08:18;;;;;;;9.80;7.45;;;;;;;;;;8329331;28;20041;-90
2022/07/06 03:12:21;;;;;;;10.32;8.10;;;;;;;;;;8329254;28;20046;-91
2022/07/06 03:16:25;;;;;;;9.05;7.70;;;;;;;;;;8334089;28;20478;-89
2022/07/06 03:20:28;;;;;;;10.95;7.40;;;;;;;;;;8335201;28;20041;-90
2022/07/06 03:24:30;;;;;;;10.18;7.82;;;;;;;;;;8335124;28;20052;-90
2022/07/06 03:28:33;;;;;;;9.52;7.13;;;;;;;;;;8334888;28;20096;-90
2022/07/06 03:32:37;;;;;;;10.05;7.07;;;;;;;;;;8334935;28;20045;-89
2022/07/06 03:36:40;;;;;;;9.75;7.68;;;;;;;;;;8328816;28;20050;-90
2022/07/06 03:40:42;;;;;;;10.60;8.80;;;;;;;;;;8333582;28;20064;-90
2022/07/06 03:44:45;;;;;;;9.63;7.70;;;;;;;;;;8334108;28;20156;-87
2022/07/06 03:48:49;;;;;;;10.05;8.30;;;;;;;;;;8334228;28;20528;-90
2022/07/06 03:52:52;;;;;;;9.65;7.90;;;;;;;;;;8334437;28;20098;-92
2022/07/06 03:56:54;;;;;;;9.35;8.07;;;;;;;;;;8333994;28;20048;-89
2022/07/06 04:00:57;;;;;;;8.23;7.15;;;;;;;;;;8333908;28;20041;-90
2022/07/06 04:05:01;;;;;;;8.52;7.47;;;;;;;;;;8333816;28;20053;-90
2022/07/06 04:09:05;;;;;;;13.27;9.45;;;;;;;;;;8334036;28;20135;-91
2022/07/06 04:13:07;;;;;;;11.88;7.80;;;;;;;;;;8333796;28;20478;-90
2022/07/06 04:21:28;;;;;;;9.80;8.25;;;;;;;;;;8333251;28;20049;-89
2022/07/06 04:25:30;;;;;;;8.50;7.50;;;;;;;;;;8332205;28;20116;-89
2022/07/06 04:29:33;;;;;;;11.60;8.40;;;;;;;;;;8333118;28;20053;-89
2022/07/06 04:33:36;;;;;;;13.95;9.57;;;;;;;;;;8332620;28;20069;-89
2022/07/06 04:37:40;;;;;;;12.68;10.25;;;;;;;;;;8332783;28;20045;-89
2022/07/06 04:41:42;;;;;;;11.95;10.63;;;;;;;;;;8332575;28;20045;-90
2022/07/06 04:45:45;;;;;;;14.52;11.27;;;;;;;;;;8332650;28;20056;-89
2022/07/06 04:49:48;;;;;;;13.75;11.30;;;;;;;;;;8332479;28;20481;-89
2022/07/06 04:53:52;;;;;;;16.02;12.73;;;;;;;;;;8332183;28;20077;-88
2022/07/06 04:57:54;;;;;;;13.85;11.35;;;;;;;;;;8332096;28;20052;-88
2022/07/06 05:01:57;;;;;;;12.60;10.77;;;;;;;;;;8331757;28;20045;-88
2022/07/06 05:06:00;;;;;;;12.65;10.00;;;;;;;;;;8332041;28;20567;-88
2022/07/06 05:10:04;;;;;;;10.13;8.88;;;;;;;;;;8329330;28;20453;-88
2022/07/06 05:14:07;;;;;;;13.27;9.95;;;;;;;;;;8325162;28;20390;-87
2022/07/06 05:18:10;;;;;;;11.15;8.13;;;;;;;;;;8331708;28;20079;-88
2022/07/06 05:22:13;;;;;;;10.68;8.27;;;;;;;;;;8331140;28;20049;-87
2022/07/06 05:26:18;;;;;;;9.88;7.72;;;;;;;;;;8331426;28;20041;-87
2022/07/06 05:30:22;;;;;;;9.13;7.20;;;;;;;;;;8330967;28;20077;-88
2022/07/06 05:34:26;;;;;;;7.88;6.65;;;;;;;;;;8328686;28;20124;-88
2022/07/06 05:38:30;;;;;;;9.35;7.05;;;;;;;;;;8328515;28;20501;-88
2022/07/06 05:42:35;;;;;;;10.80;6.97;;;;;;;;;;8330156;28;20136;-88
2022/07/06 05:46:38;;;;;;;9.02;5.63;;;;;;;;;;8327745;28;20120;-85
2022/07/06 05:50:40;;;;;;;9.85;6.35;;;;;;;;;;8329120;28;20049;-86
2022/07/06 05:54:43;;;;;;;6.53;5.43;;;;;;;;;;8330498;28;20128;-86
2022/07/06 05:58:48;;;;;;;11.13;6.72;;;;;;;;;;8328542;28;20092;-86
2022/07/06 06:02:51;;;;;;;9.60;6.57;;;;;;;;;;8325525;28;20402;-86
2022/07/06 06:06:55;;;;;;;9.75;6.57;;;;;;;;;;8331378;28;20065;-89
2022/07/06 06:10:58;;;;;;;8.38;6.55;;;;;;;;;;8339368;28;20057;-86
2022/07/06 06:15:04;;;;;;;11.90;6.45;;;;;;;;;;8333012;28;20076;-87
2022/07/06 06:19:07;;;;;;;6.80;4.80;;;;;;;;;;8330100;28;20045;-88
2022/07/06 06:23:10;;;;;;;7.72;6.38;;;;;;;;;;8330099;28;20049;-89
2022/07/06 06:27:14;;;;;;;8.13;5.55;;;;;;;;;;8329928;28;20045;-88
2022/07/06 06:31:18;;;;;;;7.45;4.90;;;;;;;;;;8325470;28;20478;-88
2022/07/06 06:35:22;;;;;;;6.47;4.45;;;;;;;;;;8329712;28;20045;-88
2022/07/06 06:39:25;;;;;;;6.85;4.63;;;;;;;;;;8325297;28;20052;-88
2022/07/06 06:43:28;;;;;;;5.25;4.10;;;;;;;;;;8329645;28;20047;-88
2022/07/06 06:47:33;;;;;;;4.90;3.70;;;;;;;;;;8329844;28;20045;-88
2022/07/06 06:51:37;;;;;;;5.07;3.00;;;;;;;;;;8335151;28;20041;-87
2022/07/06 06:55:40;;;;;;;6.80;3.22;;;;;;;;;;8329585;28;20049;-90
2022/07/06 06:59:44;;;;;;;4.72;3.60;;;;;;;;;;8334397;28;20490;-90
2022/07/06 07:03:49;;;;;;;5.20;3.58;;;;;;;;;;8334767;28;20049;-91
2022/07/06 07:07:54;;;;;;;6.32;3.95;;;;;;;;;;8331339;28;20052;-91
2022/07/06 07:11:57;;;;;;;7.80;4.38;;;;;;;;;;8330602;28;20044;-91
2022/07/06 07:16:01;;;;;;;5.03;3.92;;;;;;;;;;8330967;28;20050;-92
2022/07/06 07:20:07;;;;;;;6.72;4.15;;;;;;;;;;8333465;28;20053;-89
2022/07/06 07:24:10;;;;;;;5.25;4.00;;;;;;;;;;8335152;28;20087;-89
2022/07/06 07:28:14;;;;;;;5.40;3.33;;;;;;;;;;8333098;28;20056;-89
2022/07/06 07:32:17;;;;;;;4.40;3.40;;;;;;;;;;8331073;28;20045;-90
2022/07/06 07:36:21;;;;;;;5.68;3.75;;;;;;;;;;8328358;28;20124;-85
2022/07/06 07:40:27;;;;;;;4.93;3.85;;;;;;;;;;8330613;28;20053;-88
2022/07/06 07:44:29;;;;;;;8.35;3.80;;;;;;;;;;8332140;28;20048;-86
2022/07/06 07:48:33;;;;;;;6.93;3.60;;;;;;;;;;8332009;28;20056;-88
2022/07/06 07:52:38;;;;;;;6.88;4.28;;;;;;;;;;8333998;28;20049;-90
2022/07/06 07:56:42;;;;;;;6.28;4.22;;;;;;;;;;8331256;28;20049;-86
2022/07/06 08:00:46;;;;;;;5.15;3.60;;;;;;;;;;8325198;28;20470;-88
2022/07/06 08:04:50;;;;;;;10.05;4.53;;;;;;;;;;8324128;28;20053;-87
2022/07/06 08:08:55;;;;;;;6.00;4.47;;;;;;;;;;8331538;28;20052;-90
2022/07/06 08:12:59;;;;;;;7.15;4.10;;;;;;;;;;8332752;28;20088;-90
2022/07/06 08:17:05;;;;;;;10.27;3.95;;;;;;;;;;8334045;28;20493;-89
2022/07/06 08:21:09;;;;;;;6.07;3.50;;;;;;;;;;8332069;28;20037;-93
2022/07/06 08:25:14;;;;;;;7.57;3.67;;;;;;;;;;8326782;28;20069;-88
2022/07/06 08:29:17;;;;;;;9.90;3.90;;;;;;;;;;8330954;28;20037;-87
2022/07/06 08:33:20;;;;;;;4.53;3.55;;;;;;;;;;8328867;28;20061;-88
2022/07/06 08:37:24;;;;;;;6.25;3.70;;;;;;;;;;8332468;28;20045;-90
2022/07/06 08:41:31;;;;;;;7.38;3.70;;;;;;;;;;8332626;28;20124;-88
2022/07/06 08:45:37;;;;;;;5.85;3.60;;;;;;;;;;8332571;28;20041;-87
2022/07/06 08:49:42;;;;;;;5.72;3.50;;;;;;;;;;8330858;28;20044;-89
2022/07/06 08:53:48;;;;;;;5.65;4.10;;;;;;;;;;8326567;28;20452;-87
2022/07/06 08:57:55;;;;;;;6.63;3.83;;;;;;;;;;8333879;28;20525;-89
2022/07/06 09:02:00;;;;;;;5.85;4.00;;;;;;;;;;8333982;28;20049;-88
2022/07/06 09:06:04;;;;;;;6.05;3.85;;;;;;;;;;8330441;28;20069;-89
2022/07/06 09:10:10;;;;;;;5.88;4.07;;;;;;;;;;8330413;28;20387;-85
2022/07/06 09:14:15;;;;;;;5.40;3.30;;;;;;;;;;8331141;28;20073;-91
2022/07/06 09:18:18;;;;;;;7.57;3.80;;;;;;;;;;8331808;28;20288;-85
2022/07/06 09:22:30;;;;;;;5.70;3.40;;;;;;;;;;8331405;28;20048;-92
2022/07/06 09:26:33;;;;;;;6.25;3.90;;;;;;;;;;8327997;28;20041;-88
2022/07/06 09:30:40;;;;;;;4.85;3.90;;;;;;;;;;8331156;28;20099;-89
2022/07/06 09:34:45;;;;;;;7.90;4.20;;;;;;;;;;8329597;28;20045;-89
2022/07/06 09:38:48;;;;;;;5.50;3.35;;;;;;;;;;8330829;28;20068;-89
2022/07/06 09:42:52;;;;;;;5.00;3.40;;;;;;;;;;8326942;28;20041;-87
2022/07/06 09:46:59;;;;;;;8.02;5.28;;;;;;;;;;8330734;28;20045;-89
2022/07/06 09:51:03;;;;;;;6.05;4.20;;;;;;;;;;8330578;28;20088;-88
2022/07/06 09:55:16;;;;;;;8.25;3.72;;;;;;;;;;8330554;28;20060;-87
2022/07/06 09:59:22;;;;;;;5.85;4.00;;;;;;;;;;8330459;28;20045;-92
2022/07/06 10:03:27;;;;;;;5.68;4.28;;;;;;;;;;8326637;28;20053;-92
2022/07/06 10:07:31;;;;;;;6.60;4.47;;;;;;;;;;8330333;28;20068;-89
2022/07/06 10:11:37;;;;;;;6.10;4.43;;;;;;;;;;8330169;28;20069;-88
2022/07/06 10:15:42;;;;;;;9.40;4.40;;;;;;;;;;8330122;28;20377;-84
2022/07/06 10:19:49;;;;;;;8.18;4.57;;;;;;;;;;8330223;28;20054;-88
2022/07/06 10:23:54;;;;;;;6.88;4.90;;;;;;;;;;8331301;28;20067;-86
2022/07/06 10:27:58;;;;;;;5.43;4.40;;;;;;;;;;8334263;28;20072;-87
2022/07/06 10:32:04;;;;;;;6.70;4.82;;;;;;;;;;8336495;28;20383;-90
2022/07/06 10:36:09;;;;;;;6.63;5.00;;;;;;;;;;8336523;28;20073;-87
2022/07/06 10:44:46;;;;;;;6.38;4.65;;;;;;;;;;8336395;28;20045;-91
2022/07/06 10:48:51;;;;;;;5.70;3.30;;;;;;;;;;8330140;28;20406;-87
2022/07/06 10:53:00;;;;;;;6.38;3.90;;;;;;;;;;8336109;28;20041;-86
2022/07/06 10:57:10;;;;;;;4.18;3.20;;;;;;;;;;8335880;28;20099;-94
2022/07/06 11:01:14;;;;;;;6.97;3.17;;;;;;;;;;8335933;28;20049;-87
2022/07/06 11:05:42;;;;;;;7.47;2.80;;;;;;;;;;8335566;28;20049;-86
2022/07/06 11:09:56;;;;;;;6.35;2.55;;;;;;;;;;8331501;28;20413;-86
2022/07/06 11:14:02;;;;;;;4.38;3.03;;;;;;;;;;8335771;28;20494;-91
2022/07/06 11:18:13;;;;;;;4.20;2.47;;;;;;;;;;8330323;28;20041;-86
2022/07/06 11:22:18;;;;;;;4.10;2.50;;;;;;;;;;8335240;28;20127;-86
2022/07/06 11:26:24;;;;;;;5.85;2.88;;;;;;;;;;8335048;28;20049;-88
2022/07/06 11:30:28;;;;;;;4.97;2.67;;;;;;;;;;8335095;28;20115;-86
2022/07/06 11:34:33;;;;;;;5.43;2.90;;;;;;;;;;8334391;28;20092;-85
2022/07/06 11:38:36;;;;;;;7.68;2.90;;;;;;;;;;8328921;28;20505;-86
2022/07/06 11:42:42;;;;;;;5.13;2.80;;;;;;;;;;8334477;28;20132;-84
2022/07/06 11:46:46;;;;;;;4.70;2.50;;;;;;;;;;8334420;28;20060;-87
2022/07/06 11:50:59;;;;;;;4.75;2.15;;;;;;;;;;8334537;28;20125;-88
2022/07/06 11:55:03;;;;;;;3.78;2.35;;;;;;;;;;8330133;28;20068;-87
2022/07/06 11:59:10;;;;;;;5.10;2.33;;;;;;;;;;8334044;28;20056;-86
2022/07/06 12:03:17;;;;;;;5.30;2.50;;;;;;;;;;8333501;28;20046;-87
2022/07/06 12:07:21;;;;;;;3.90;2.40;;;;;;;;;;8333774;28;20069;-86
2022/07/06 12:11:27;;;;;;;5.82;2.15;;;;;;;;;;8333690;28;20045;-89
2022/07/06 12:15:32;;;;;;;7.68;2.47;;;;;;;;;;8333508;28;20053;-88
2022/07/06 12:19:36;;;;;;;4.20;2.20;;;;;;;;;;8333247;28;20049;-86
2022/07/06 12:23:41;;;;;;;5.25;2.50;;;;;;;;;;8330420;28;20041;-87
2022/07/06 12:27:45;;;;;;;3.22;2.13;;;;;;;;;;8333185;28;20519;-86
2022/07/06 12:31:52;;;;;;;4.75;2.60;;;;;;;;;;8332911;28;20092;-85
2022/07/06 12:35:56;;;;;;;6.75;2.22;;;;;;;;;;8332754;28;20057;-87
2022/07/06 12:40:00;;;;;;;5.57;2.80;;;;;;;;;;8332951;28;20045;-89
2022/07/06 12:44:07;;;;;;;5.72;2.80;;;;;;;;;;8331290;28;20045;-88
2022/07/06 12:48:12;;;;;;;5.05;3.38;;;;;;;;;;8331839;28;20077;-88
2022/07/06 12:52:18;;;;;;;5.18;3.72;;;;;;;;;;8326419;28;20046;-89
2022/07/06 12:56:23;;;;;;;7.43;3.50;;;;;;;;;;8332051;28;20084;-87
2022/07/06 13:00:27;;;;;;;6.63;4.68;;;;;;;;;;8332275;28;20049;-86
2022/07/06 13:04:33;;;;;;;6.20;4.55;;;;;;;;;;8331698;28;20107;-87
2022/07/06 13:08:38;;;;;;;8.63;3.97;;;;;;;;;;8331812;28;20048;-86
2022/07/06 13:12:43;;;;;;;5.68;4.50;;;;;;;;;;8331876;28;20124;-87
2022/07/06 13:16:48;;;;;;;6.60;4.85;;;;;;;;;;8328461;28;20045;-89
2022/07/06 13:20:54;;;;;;;7.35;4.80;;;;;;;;;;8331176;28;20484;-87
2022/07/06 13:24:58;;;;;;;9.93;5.05;;;;;;;;;;8331638;28;20223;-88
2022/07/06 13:29:02;;;;;;;8.48;5.15;;;;;;;;;;8331299;28;20044;-88
2022/07/06 13:33:05;;;;;;;11.50;7.18;;;;;;;;;;8331123;28;20049;-86
2022/07/06 13:37:10;;;;;;;55.90;29.25;;;;;;;;;;8330870;28;20049;-86
2022/07/06 13:41:14;;;;;;;25.45;17.35;;;;;;;;;;8331770;28;20363;-88
2022/07/06 13:45:17;;;;;;;9.27;7.53;;;;;;;;;;8330745;28;20045;-88
2022/07/06 13:49:22;;;;;;;6.03;4.22;;;;;;;;;;8330430;28;20493;-86
2022/07/06 13:53:28;;;;;;;6.22;4.45;;;;;;;;;;8326371;28;20053;-88
2022/07/06 13:57:32;;;;;;;6.53;4.82;;;;;;;;;;8330462;28;20053;-88
2022/07/06 14:01:37;;;;;;;12.27;6.40;;;;;;;;;;8325726;28;20048;-87
2022/07/06 14:05:41;;;;;;;9.55;5.90;;;;;;;;;;8324377;28;20103;-87
2022/07/06 14:09:51;;;;;;;6.05;3.83;;;;;;;;;;8322713;28;20047;-89
2022/07/06 14:13:56;;;;;;;6.57;3.78;;;;;;;;;;8328200;28;20505;-86
2022/07/06 14:17:59;;;;;;;5.60;2.97;;;;;;;;;;8323371;28;20140;-88
2022/07/06 14:22:03;;;;;;;5.25;2.83;;;;;;;;;;8323243;28;20037;-87
2022/07/06 14:26:08;;;;;;;4.47;2.88;;;;;;;;;;8324863;28;20049;-86
2022/07/06 14:30:24;;;;;;;7.03;2.72;;;;;;;;;;8325541;28;20500;-89
2022/07/06 14:34:32;;;;;;;3.33;2.40;;;;;;;;;;8326462;28;20048;-86
2022/07/06 14:38:35;;;;;;;4.03;2.13;;;;;;;;;;8327719;28;20046;-88
2022/07/06 14:42:42;;;;;;;3.80;2.28;;;;;;;;;;8325814;28;20128;-89
2022/07/06 14:46:48;;;;;;;4.57;2.28;;;;;;;;;;8325733;28;20541;-86
2022/07/06 14:50:52;;;;;;;3.60;2.22;;;;;;;;;;8330444;28;20042;-89
2022/07/06 14:54:57;;;;;;;4.28;2.05;;;;;;;;;;8320463;28;20046;-92
2022/07/06 14:59:01;;;;;;;4.38;2.47;;;;;;;;;;8326932;28;20045;-91
2022/07/06 15:03:05;;;;;;;4.88;2.40;;;;;;;;;;8327524;28;20464;-88
2022/07/06 15:07:10;;;;;;;5.30;2.65;;;;;;;;;;8326149;28;20048;-93
2022/07/06 15:11:15;;;;;;;6.95;3.08;;;;;;;;;;8328736;28;20095;-93
2022/07/06 15:15:25;;;;;;;3.58;2.35;;;;;;;;;;8334587;28;20125;-89
2022/07/06 15:19:29;;;;;;;3.63;2.17;;;;;;;;;;8333725;28;20060;-91
2022/07/06 15:23:34;;;;;;;4.82;2.60;;;;;;;;;;8331295;28;20137;-92
2022/07/06 15:27:38;;;;;;;4.82;2.30;;;;;;;;;;8332144;28;20482;-94
2022/07/06 15:31:43;;;;;;;8.02;2.95;;;;;;;;;;8333652;28;20539;-95
2022/07/06 15:35:47;;;;;;;3.50;2.40;;;;;;;;;;8334486;28;20053;-95
2022/07/06 15:39:51;;;;;;;7.47;3.25;;;;;;;;;;8332948;28;20041;-92
2022/07/06 15:43:56;;;;;;;19.98;11.55;;;;;;;;;;8333727;28;20132;-90
2022/07/06 15:48:02;;;;;;;13.13;6.32;;;;;;;;;;8331737;28;20055;-90
2022/07/06 15:52:09;;;;;;;32.58;24.08;;;;;;;;;;8332482;28;20793;-90
2022/07/06 15:56:13;;;;;;;21.27;15.13;;;;;;;;;;8335275;28;20076;-95
2022/07/06 16:00:21;;;;;;;9.77;4.43;;;;;;;;;;8333667;28;20049;-94
2022/07/06 16:04:48;;;;;;;13.52;7.45;;;;;;;;;;8337897;28;20581;-92
2022/07/06 16:09:12;;;;;;;21.58;11.18;;;;;;;;;;8337791;28;20037;-96
2022/07/06 16:13:20;;;;;;;12.70;5.45;;;;;;;;;;8336912;28;20049;-92
2022/07/06 16:17:24;;;;;;;31.23;21.48;;;;;;;;;;8329860;28;20041;-90
2022/07/06 16:21:30;;;;;;;16.67;12.30;;;;;;;;;;8326899;28;20420;-91
2022/07/06 16:25:35;;;;;;;11.70;4.50;;;;;;;;;;8329206;28;20124;-92
2022/07/06 16:29:41;;;;;;;9.25;3.90;;;;;;;;;;8331517;28;20133;-91
2022/07/06 16:33:47;;;;;;;9.88;4.68;;;;;;;;;;8333707;28;20042;-89
2022/07/06 16:37:55;;;;;;;9.10;4.50;;;;;;;;;;8327841;28;20072;-91
2022/07/06 16:42:00;;;;;;;5.60;2.83;;;;;;;;;;8324182;28;20409;-88
2022/07/06 16:46:06;;;;;;;8.60;3.30;;;;;;;;;;8325150;28;20045;-91
2022/07/06 16:50:11;;;;;;;4.55;2.22;;;;;;;;;;8325476;28;20056;-91
2022/07/06 16:54:15;;;;;;;5.22;2.20;;;;;;;;;;8327177;28;20052;-94
2022/07/06 16:58:22;;;;;;;6.30;2.70;;;;;;;;;;8323082;28;20048;-92
2022/07/06 17:02:26;;;;;;;23.80;9.45;;;;;;;;;;8325682;28;20050;-92
2022/07/06 17:06:30;;;;;;;55.17;32.38;;;;;;;;;;8329048;28;20092;-95
2022/07/06 17:10:37;;;;;;;33.70;20.20;;;;;;;;;;8327578;28;20132;-93
2022/07/06 17:14:40;;;;;;;26.83;15.93;;;;;;;;;;8321015;28;20046;-91
2022/07/06 17:18:44;;;;;;;22.90;13.38;;;;;;;;;;8318449;28;20041;-90
2022/07/06 17:22:48;;;;;;;23.85;12.23;;;;;;;;;;8322195;28;20132;-90
2022/07/06 17:26:55;;;;;;;16.77;10.45;;;;;;;;;;8320981;28;20050;-90
2022/07/06 17:30:59;;;;;;;36.20;20.25;;;;;;;;;;8328547;28;20057;-91
2022/07/06 17:35:03;;;;;;;48.25;26.77;;;;;;;;;;8320022;28;20516;-90
2022/07/06 17:39:16;;;;;;;32.33;18.92;;;;;;;;;;8324979;28;20049;-89
2022/07/06 17:43:28;;;;;;;45.25;25.63;;;;;;;;;;8324212;28;20493;-93
2022/07/06 17:47:37;;;;;;;34.65;19.10;;;;;;;;;;8323966;28;20099;-89
2022/07/06 17:51:46;;;;;;;20.63;12.40;;;;;;;;;;8321402;28;20041;-89
2022/07/06 17:55:55;;;;;;;15.90;9.05;;;;;;;;;;8318534;28;20470;-93
2022/07/06 18:00:00;;;;;;;17.42;10.88;;;;;;;;;;8322504;28;20042;-92
2022/07/06 18:04:06;;;;;;;20.00;11.32;;;;;;;;;;8323743;28;20057;-89
2022/07/06 18:08:11;;;;;;;10.07;6.15;;;;;;;;;;8319296;28;20041;-92
2022/07/06 18:12:16;;;;;;;11.52;7.30;;;;;;;;;;8321306;28;20088;-88
2022/07/06 18:16:24;;;;;;;17.73;8.77;;;;;;;;;;8324544;28;20144;-92
2022/07/06 18:20:29;;;;;;;16.25;8.68;;;;;;;;;;8322926;28;20045;-93
2022/07/06 18:24:33;;;;;;;10.07;5.75;;;;;;;;;;8315863;28;20041;-90
2022/07/06 18:28:37;;;;;;;6.20;4.10;;;;;;;;;;8324592;28;20056;-93
2022/07/06 18:32:49;;;;;;;8.70;4.10;;;;;;;;;;8321217;28;20068;-92
2022/07/06 18:36:57;;;;;;;13.38;6.40;;;;;;;;;;8324447;28;20048;-92
2022/07/06 18:41:01;;;;;;;7.72;4.03;;;;;;;;;;8320912;28;20045;-93
2022/07/06 18:45:09;;;;;;;9.32;3.58;;;;;;;;;;8316595;28;20045;-92
2022/07/06 18:49:15;;;;;;;7.47;4.35;;;;;;;;;;8326759;28;20462;-92
2022/07/06 18:53:20;;;;;;;13.88;4.97;;;;;;;;;;8323007;28;20125;-92
2022/07/06 18:57:27;;;;;;;6.03;3.65;;;;;;;;;;8331200;28;20044;-92
2022/07/06 19:01:33;;;;;;;7.22;4.25;;;;;;;;;;8331388;28;20493;-90
2022/07/06 19:05:39;;;;;;;5.07;3.70;;;;;;;;;;8334454;28;20057;-88
2022/07/06 19:09:52;;;;;;;6.72;3.63;;;;;;;;;;8330475;28;20037;-93
2022/07/06 19:13:58;;;;;;;6.18;3.83;;;;;;;;;;8334668;28;20045;-92
2022/07/06 19:18:02;;;;;;;9.45;4.05;;;;;;;;;;8329945;28;20038;-89
2022/07/06 19:22:08;;;;;;;6.95;4.15;;;;;;;;;;8332118;28;20056;-91
2022/07/06 19:26:12;;;;;;;15.15;6.43;;;;;;;;;;8330598;28;20401;-91
2022/07/06 19:30:16;;;;;;;9.90;4.78;;;;;;;;;;8334400;28;20104;-93
2022/07/06 19:34:22;;;;;;;14.68;7.78;;;;;;;;;;8332909;28;20128;-92
2022/07/06 19:38:32;;;;;;;20.17;8.05;;;;;;;;;;8333486;28;20049;-91
2022/07/06 19:42:45;;;;;;;10.13;6.07;;;;;;;;;;8336976;28;20510;-93
2022/07/06 19:46:54;;;;;;;12.05;6.05;;;;;;;;;;8336262;28;20068;-89
2022/07/06 19:51:02;;;;;;;11.15;6.40;;;;;;;;;;8331743;28;20124;-89
2022/07/06 19:55:10;;;;;;;12.40;6.85;;;;;;;;;;8337088;28;20523;-91
2022/07/06 19:59:15;;;;;;;14.43;6.13;;;;;;;;;;8337133;28;20050;-92
2022/07/06 20:03:33;;;;;;;10.85;5.55;;;;;;;;;;8311432;28;20157;-89
2022/07/06 20:08:08;;;;;;;13.57;8.05;;;;;;;;;;8287376;28;20124;-88
2022/07/06 20:12:26;;;;;;;14.15;7.15;;;;;;;;;;8300805;28;20478;-91
2022/07/06 20:16:41;;;;;;;10.98;6.60;;;;;;;;;;8293303;28;20061;-93
2022/07/06 20:20:55;;;;;;;10.23;5.80;;;;;;;;;;8295493;28;20082;-94
2022/07/06 20:24:59;;;;;;;9.02;4.93;;;;;;;;;;8295115;28;20076;-93
2022/07/06 20:29:08;;;;;;;9.63;4.80;;;;;;;;;;8296155;28;20591;-91
2022/07/06 20:33:15;;;;;;;4.80;3.72;;;;;;;;;;8295797;28;20160;-91
2022/07/06 20:37:20;;;;;;;8.45;4.13;;;;;;;;;;8315292;28;20148;-93
2022/07/06 20:41:25;;;;;;;9.93;4.28;;;;;;;;;;8333717;28;20050;-89
2022/07/06 20:45:32;;;;;;;7.07;4.82;;;;;;;;;;8337370;28;20124;-91
2022/07/06 20:49:36;;;;;;;10.23;5.15;;;;;;;;;;8330065;28;20038;-92
2022/07/06 20:53:39;;;;;;;6.15;4.25;;;;;;;;;;8330833;28;20054;-93
2022/07/06 20:57:43;;;;;;;13.98;7.90;;;;;;;;;;8328982;28;20040;-91
2022/07/06 21:01:53;;;;;;;13.23;6.57;;;;;;;;;;8323946;28;20051;-91
2022/07/06 21:05:57;;;;;;;15.05;6.80;;;;;;;;;;8331788;28;20068;-89
2022/07/06 21:10:02;;;;;;;16.55;6.10;;;;;;;;;;8331862;28;20049;-94
2022/07/06 21:14:05;;;;;;;14.70;6.85;;;;;;;;;;8332561;28;20042;-92
2022/07/06 21:18:10;;;;;;;9.98;4.80;;;;;;;;;;8331825;28;20046;-91
2022/07/06 21:22:13;;;;;;;6.97;4.00;;;;;;;;;;8332396;28;20045;-92
2022/07/06 21:26:17;;;;;;;7.93;4.45;;;;;;;;;;8331153;28;20069;-93
2022/07/06 21:30:21;;;;;;;6.78;4.00;;;;;;;;;;8336655;28;20064;-90
2022/07/06 21:34:25;;;;;;;5.78;3.90;;;;;;;;;;8332598;28;20041;-92
2022/07/06 21:38:28;;;;;;;9.13;3.95;;;;;;;;;;8336484;28;20092;-92
2022/07/06 21:42:31;;;;;;;6.80;4.20;;;;;;;;;;8332213;28;20445;-92
2022/07/06 21:46:37;;;;;;;6.03;3.75;;;;;;;;;;8332162;28;20069;-89
2022/07/06 21:50:42;;;;;;;8.48;3.78;;;;;;;;;;8331392;28;20094;-91
2022/07/06 21:54:45;;;;;;;7.85;4.00;;;;;;;;;;8331005;28;20041;-92
2022/07/06 21:58:48;;;;;;;6.30;4.07;;;;;;;;;;8331111;28;20612;-92
2022/07/06 22:02:51;;;;;;;6.07;4.28;;;;;;;;;;8325252;28;20056;-93
2022/07/06 22:06:55;;;;;;;4.68;3.72;;;;;;;;;;8327687;28;20037;-92
2022/07/06 22:10:58;;;;;;;7.15;3.50;;;;;;;;;;8330090;28;20400;-91
2022/07/06 22:15:01;;;;;;;7.97;3.38;;;;;;;;;;8327316;28;20133;-94
2022/07/06 22:19:03;;;;;;;6.72;3.70;;;;;;;;;;8335660;28;20049;-94
2022/07/06 22:23:08;;;;;;;5.15;3.42;;;;;;;;;;8330400;28;20033;-93
2022/07/06 22:27:11;;;;;;;6.10;3.42;;;;;;;;;;8333641;28;20116;-94
2022/07/06 22:31:14;;;;;;;5.72;4.20;;;;;;;;;;8337999;28;20046;-94
2022/07/06 22:35:19;;;;;;;10.68;5.00;;;;;;;;;;8336914;28;20058;-95
2022/07/06 22:39:24;;;;;;;6.75;4.55;;;;;;;;;;8343576;28;20048;-94
2022/07/06 22:43:27;;;;;;;9.25;4.75;;;;;;;;;;8336795;28;20045;-95
2022/07/06 22:47:32;;;;;;;7.13;4.10;;;;;;;;;;8328969;28;20042;-94
2022/07/06 22:51:36;;;;;;;6.38;4.18;;;;;;;;;;8345811;28;20105;-92
2022/07/06 22:55:44;;;;;;;5.32;4.00;;;;;;;;;;8330863;28;20053;-93
2022/07/06 22:59:48;;;;;;;9.38;4.10;;;;;;;;;;8347057;28;20075;-92
2022/07/06 23:03:51;;;;;;;5.22;4.03;;;;;;;;;;8321597;28;20048;-93
2022/07/06 23:07:55;;;;;;;9.45;3.92;;;;;;;;;;8331610;28;20041;-91
2022/07/06 23:12:05;;;;;;;5.90;3.55;;;;;;;;;;8344998;28;20052;-96
2022/07/06 23:16:19;;;;;;;6.60;3.65;;;;;;;;;;8345125;28;20060;-94
2022/07/06 23:20:22;;;;;;;6.80;3.30;;;;;;;;;;8332406;28;20555;-94
2022/07/06 23:24:25;;;;;;;6.78;4.63;;;;;;;;;;8324216;28;20044;-95
2022/07/06 23:28:29;;;;;;;12.95;4.32;;;;;;;;;;8329506;28;20128;-94
2022/07/06 23:32:32;;;;;;;6.85;3.88;;;;;;;;;;8328406;28;20092;-95
2022/07/06 23:36:35;;;;;;;5.68;4.10;;;;;;;;;;8337535;28;20053;-93
2022/07/06 23:40:38;;;;;;;8.38;4.57;;;;;;;;;;8346686;28;20103;-92
2022/07/06 23:44:43;;;;;;;7.90;4.28;;;;;;;;;;8336599;28;20067;-92
2022/07/06 23:48:45;;;;;;;5.60;4.22;;;;;;;;;;8331684;28;20432;-94
2022/07/06 23:52:48;;;;;;;5.32;3.92;;;;;;;;;;8324643;28;20124;-93
